sensor_id;sensor_type;location;lat;lon;timestamp;temperature;humidity
26342;DHT22;14054;50.108;8.640;2023-07-31T00:01:19;19.00;99.90
26342;DHT22;14054;50.108;8.640;2023-07-31T00:03:45;18.90;99.90
26342;DHT22;14054;50.108;8.640;2023-07-31T00:06:12;18.90;99.90
26342;DHT22;14054;50.108;8.640;2023-07-31T00:08:37;18.90;99.90
26342;DHT22;14054;50.108;8.640;2023-07-31T00:11:02;18.90;99.90
26342;DHT22;14054;50.108;8.640;2023-07-31T00:13:28;18.80;99.90
26342;DHT22;14054;50.108;8.640;2023-07-31T00:15:53;18.80;99.90
26342;DHT22;14054;50.108;8.640;2023-07-31T00:18:19;18.80;99.90
26342;DHT22;14054;50.108;8.640;2023-07-31T00:20:45;18.70;99.90
26342;DHT22;14054;50.108;8.640;2023-07-31T00:23:10;18.70;99.90
26342;DHT22;14054;50.108;8.640;2023-07-31T00:25:35;18.70;99.90
26342;DHT22;14054;50.108;8.640;2023-07-31T00:28:01;18.70;99.90
26342;DHT22;14054;50.108;8.640;2023-07-31T00:30:26;18.60;99.90
26342;DHT22;14054;50.108;8.640;2023-07-31T00:32:52;18.70;99.90
26342;DHT22;14054;50.108;8.640;2023-07-31T00:35:18;18.60;99.90
26342;DHT22;14054;50.108;8.640;2023-07-31T00:37:43;18.60;99.90
26342;DHT22;14054;50.108;8.640;2023-07-31T00:40:09;18.50;99.90
26342;DHT22;14054;50.108;8.640;2023-07-31T00:42:34;18.50;99.90
26342;DHT22;14054;50.108;8.640;2023-07-31T00:45:00;18.50;99.90
26342;DHT22;14054;50.108;8.640;2023-07-31T00:47:25;18.50;99.90
26342;DHT22;14054;50.108;8.640;2023-07-31T00:49:52;18.40;99.90
26342;DHT22;14054;50.108;8.640;2023-07-31T00:52:18;18.50;99.90
26342;DHT22;14054;50.108;8.640;2023-07-31T00:54:44;18.50;99.90
26342;DHT22;14054;50.108;8.640;2023-07-31T00:57:10;18.40;99.90
26342;DHT22;14054;50.108;8.640;2023-07-31T00:59:35;18.40;99.90
26342;DHT22;14054;50.108;8.640;2023-07-31T01:02:02;18.40;99.90
26342;DHT22;14054;50.108;8.640;2023-07-31T01:04:28;18.40;99.90
26342;DHT22;14054;50.108;8.640;2023-07-31T01:07:11;18.40;99.90
26342;DHT22;14054;50.108;8.640;2023-07-31T01:12:23;18.40;99.90
26342;DHT22;14054;50.108;8.640;2023-07-31T01:15:09;18.30;99.90
26342;DHT22;14054;50.108;8.640;2023-07-31T01:17:38;18.30;99.90
26342;DHT22;14054;50.108;8.640;2023-07-31T01:20:08;18.40;99.90
26342;DHT22;14054;50.108;8.640;2023-07-31T01:22:47;18.40;99.90
26342;DHT22;14054;50.108;8.640;2023-07-31T01:28:14;18.40;99.90
26342;DHT22;14054;50.108;8.640;2023-07-31T01:30:47;18.40;99.90
26342;DHT22;14054;50.108;8.640;2023-07-31T01:33:15;18.40;99.90
26342;DHT22;14054;50.108;8.640;2023-07-31T01:35:45;18.40;99.90
26342;DHT22;14054;50.108;8.640;2023-07-31T01:38:11;18.40;99.90
26342;DHT22;14054;50.108;8.640;2023-07-31T01:40:37;18.40;99.90
26342;DHT22;14054;50.108;8.640;2023-07-31T01:43:02;18.40;99.90
26342;DHT22;14054;50.108;8.640;2023-07-31T01:45:28;18.50;99.90
26342;DHT22;14054;50.108;8.640;2023-07-31T01:47:53;18.50;99.90
26342;DHT22;14054;50.108;8.640;2023-07-31T01:50:19;18.50;99.90
26342;DHT22;14054;50.108;8.640;2023-07-31T01:52:44;18.50;99.90
26342;DHT22;14054;50.108;8.640;2023-07-31T01:55:10;18.60;99.90
26342;DHT22;14054;50.108;8.640;2023-07-31T01:57:37;18.60;99.90
26342;DHT22;14054;50.108;8.640;2023-07-31T02:00:03;18.60;99.90
26342;DHT22;14054;50.108;8.640;2023-07-31T02:02:28;18.70;99.90
26342;DHT22;14054;50.108;8.640;2023-07-31T02:04:54;18.60;99.90
26342;DHT22;14054;50.108;8.640;2023-07-31T02:07:19;18.70;99.90
26342;DHT22;14054;50.108;8.640;2023-07-31T02:09:45;18.70;99.90
26342;DHT22;14054;50.108;8.640;2023-07-31T02:12:12;18.70;99.90
26342;DHT22;14054;50.108;8.640;2023-07-31T02:14:39;18.70;99.90
26342;DHT22;14054;50.108;8.640;2023-07-31T02:17:05;18.70;99.90
26342;DHT22;14054;50.108;8.640;2023-07-31T02:19:31;18.80;99.90
26342;DHT22;14054;50.108;8.640;2023-07-31T02:21:56;18.80;99.90
26342;DHT22;14054;50.108;8.640;2023-07-31T02:24:22;18.80;99.90
26342;DHT22;14054;50.108;8.640;2023-07-31T02:26:48;18.80;99.90
26342;DHT22;14054;50.108;8.640;2023-07-31T02:29:13;18.80;99.90
26342;DHT22;14054;50.108;8.640;2023-07-31T02:31:39;18.80;99.90
26342;DHT22;14054;50.108;8.640;2023-07-31T02:34:04;18.80;99.90
26342;DHT22;14054;50.108;8.640;2023-07-31T02:36:30;18.80;99.90
26342;DHT22;14054;50.108;8.640;2023-07-31T02:38:55;18.80;99.90
26342;DHT22;14054;50.108;8.640;2023-07-31T02:41:21;18.80;99.90
26342;DHT22;14054;50.108;8.640;2023-07-31T02:43:46;18.80;99.90
26342;DHT22;14054;50.108;8.640;2023-07-31T02:46:12;18.80;99.90
26342;DHT22;14054;50.108;8.640;2023-07-31T02:48:37;18.80;99.90
26342;DHT22;14054;50.108;8.640;2023-07-31T02:51:03;18.80;99.90
26342;DHT22;14054;50.108;8.640;2023-07-31T02:53:28;18.80;99.90
26342;DHT22;14054;50.108;8.640;2023-07-31T02:55:54;18.80;99.90
26342;DHT22;14054;50.108;8.640;2023-07-31T02:58:19;18.70;99.90
26342;DHT22;14054;50.108;8.640;2023-07-31T03:00:45;18.70;99.90
26342;DHT22;14054;50.108;8.640;2023-07-31T03:03:10;18.70;99.90
26342;DHT22;14054;50.108;8.640;2023-07-31T03:05:36;18.70;99.90
26342;DHT22;14054;50.108;8.640;2023-07-31T03:08:02;18.70;99.90
26342;DHT22;14054;50.108;8.640;2023-07-31T03:10:29;18.70;99.90
26342;DHT22;14054;50.108;8.640;2023-07-31T03:12:54;18.70;99.90
26342;DHT22;14054;50.108;8.640;2023-07-31T03:15:20;18.70;99.90
26342;DHT22;14054;50.108;8.640;2023-07-31T03:17:45;18.60;99.90
26342;DHT22;14054;50.108;8.640;2023-07-31T03:20:11;18.60;99.90
26342;DHT22;14054;50.108;8.640;2023-07-31T03:22:36;18.60;99.90
26342;DHT22;14054;50.108;8.640;2023-07-31T03:25:03;18.50;99.90
26342;DHT22;14054;50.108;8.640;2023-07-31T03:27:29;18.50;99.90
26342;DHT22;14054;50.108;8.640;2023-07-31T03:29:54;18.50;99.90
26342;DHT22;14054;50.108;8.640;2023-07-31T03:32:20;18.50;99.90
26342;DHT22;14054;50.108;8.640;2023-07-31T03:34:45;18.50;99.90
26342;DHT22;14054;50.108;8.640;2023-07-31T03:37:11;18.50;99.90
26342;DHT22;14054;50.108;8.640;2023-07-31T03:39:36;18.40;99.90
26342;DHT22;14054;50.108;8.640;2023-07-31T03:42:02;18.40;99.90
26342;DHT22;14054;50.108;8.640;2023-07-31T03:44:27;18.40;99.90
26342;DHT22;14054;50.108;8.640;2023-07-31T03:46:53;18.30;99.90
26342;DHT22;14054;50.108;8.640;2023-07-31T03:49:18;18.40;99.90
26342;DHT22;14054;50.108;8.640;2023-07-31T03:51:44;18.30;99.90
26342;DHT22;14054;50.108;8.640;2023-07-31T03:54:09;18.30;99.90
26342;DHT22;14054;50.108;8.640;2023-07-31T03:56:35;18.30;99.90
26342;DHT22;14054;50.108;8.640;2023-07-31T03:59:00;18.30;99.90
26342;DHT22;14054;50.108;8.640;2023-07-31T04:01:26;18.30;99.90
26342;DHT22;14054;50.108;8.640;2023-07-31T04:03:51;18.30;99.90
26342;DHT22;14054;50.108;8.640;2023-07-31T04:06:17;18.20;99.90
26342;DHT22;14054;50.108;8.640;2023-07-31T04:08:45;18.30;99.90
26342;DHT22;14054;50.108;8.640;2023-07-31T04:11:11;18.30;99.90
26342;DHT22;14054;50.108;8.640;2023-07-31T04:13:38;18.20;99.90
26342;DHT22;14054;50.108;8.640;2023-07-31T04:16:03;18.20;99.90
26342;DHT22;14054;50.108;8.640;2023-07-31T04:18:29;18.20;99.90
26342;DHT22;14054;50.108;8.640;2023-07-31T04:20:56;18.20;99.90
26342;DHT22;14054;50.108;8.640;2023-07-31T04:23:23;18.20;99.90
26342;DHT22;14054;50.108;8.640;2023-07-31T04:25:49;18.20;99.90
26342;DHT22;14054;50.108;8.640;2023-07-31T04:28:14;18.20;99.90
26342;DHT22;14054;50.108;8.640;2023-07-31T04:30:40;18.20;99.90
26342;DHT22;14054;50.108;8.640;2023-07-31T04:33:05;18.20;99.90
26342;DHT22;14054;50.108;8.640;2023-07-31T04:35:31;18.20;99.90
26342;DHT22;14054;50.108;8.640;2023-07-31T04:37:56;18.30;99.90
26342;DHT22;14054;50.108;8.640;2023-07-31T04:40:22;18.20;99.90
26342;DHT22;14054;50.108;8.640;2023-07-31T04:42:48;18.20;99.90
26342;DHT22;14054;50.108;8.640;2023-07-31T04:45:14;18.20;99.90
26342;DHT22;14054;50.108;8.640;2023-07-31T04:47:40;18.20;99.90
26342;DHT22;14054;50.108;8.640;2023-07-31T04:50:06;18.20;99.90
26342;DHT22;14054;50.108;8.640;2023-07-31T04:52:31;18.30;99.90
26342;DHT22;14054;50.108;8.640;2023-07-31T04:54:57;18.30;99.90
26342;DHT22;14054;50.108;8.640;2023-07-31T04:57:22;18.30;99.90
26342;DHT22;14054;50.108;8.640;2023-07-31T04:59:48;18.40;99.90
26342;DHT22;14054;50.108;8.640;2023-07-31T05:02:13;18.40;99.90
26342;DHT22;14054;50.108;8.640;2023-07-31T05:04:39;18.40;99.90
26342;DHT22;14054;50.108;8.640;2023-07-31T05:07:04;18.40;99.90
26342;DHT22;14054;50.108;8.640;2023-07-31T05:09:30;18.40;99.90
26342;DHT22;14054;50.108;8.640;2023-07-31T05:11:55;18.40;99.90
26342;DHT22;14054;50.108;8.640;2023-07-31T05:14:21;18.50;99.90
26342;DHT22;14054;50.108;8.640;2023-07-31T05:16:46;18.50;99.90
26342;DHT22;14054;50.108;8.640;2023-07-31T05:19:12;18.50;99.90
26342;DHT22;14054;50.108;8.640;2023-07-31T05:21:37;18.40;99.90
26342;DHT22;14054;50.108;8.640;2023-07-31T05:24:04;18.40;99.90
26342;DHT22;14054;50.108;8.640;2023-07-31T05:26:30;18.40;99.90
26342;DHT22;14054;50.108;8.640;2023-07-31T05:28:55;18.40;99.90
26342;DHT22;14054;50.108;8.640;2023-07-31T05:31:21;18.30;99.90
26342;DHT22;14054;50.108;8.640;2023-07-31T05:33:48;18.40;99.90
26342;DHT22;14054;50.108;8.640;2023-07-31T05:36:15;18.40;99.90
26342;DHT22;14054;50.108;8.640;2023-07-31T05:38:41;18.40;99.90
26342;DHT22;14054;50.108;8.640;2023-07-31T05:41:07;18.40;99.90
26342;DHT22;14054;50.108;8.640;2023-07-31T05:43:33;18.40;99.90
26342;DHT22;14054;50.108;8.640;2023-07-31T05:45:59;18.40;99.90
26342;DHT22;14054;50.108;8.640;2023-07-31T05:48:24;18.40;99.90
26342;DHT22;14054;50.108;8.640;2023-07-31T05:50:50;18.40;99.90
26342;DHT22;14054;50.108;8.640;2023-07-31T05:53:15;18.40;99.90
26342;DHT22;14054;50.108;8.640;2023-07-31T05:55:41;18.40;99.90
26342;DHT22;14054;50.108;8.640;2023-07-31T05:58:06;18.50;99.90
26342;DHT22;14054;50.108;8.640;2023-07-31T06:00:32;18.50;99.90
26342;DHT22;14054;50.108;8.640;2023-07-31T06:02:57;18.60;99.90
26342;DHT22;14054;50.108;8.640;2023-07-31T06:05:23;18.60;99.90
26342;DHT22;14054;50.108;8.640;2023-07-31T06:07:48;18.60;99.90
26342;DHT22;14054;50.108;8.640;2023-07-31T06:10:14;18.60;99.90
26342;DHT22;14054;50.108;8.640;2023-07-31T06:12:39;18.60;99.90
26342;DHT22;14054;50.108;8.640;2023-07-31T06:15:05;18.60;99.90
26342;DHT22;14054;50.108;8.640;2023-07-31T06:17:31;18.60;99.90
26342;DHT22;14054;50.108;8.640;2023-07-31T06:19:57;18.70;99.90
26342;DHT22;14054;50.108;8.640;2023-07-31T06:22:22;18.70;99.90
26342;DHT22;14054;50.108;8.640;2023-07-31T06:24:48;18.70;99.90
26342;DHT22;14054;50.108;8.640;2023-07-31T06:27:13;18.70;99.90
26342;DHT22;14054;50.108;8.640;2023-07-31T06:29:39;18.80;99.90
26342;DHT22;14054;50.108;8.640;2023-07-31T06:32:04;18.90;99.90
26342;DHT22;14054;50.108;8.640;2023-07-31T06:34:30;18.90;99.90
26342;DHT22;14054;50.108;8.640;2023-07-31T06:36:58;19.00;99.90
26342;DHT22;14054;50.108;8.640;2023-07-31T06:39:24;19.10;99.90
26342;DHT22;14054;50.108;8.640;2023-07-31T06:41:49;19.00;99.90
26342;DHT22;14054;50.108;8.640;2023-07-31T06:44:15;19.10;99.90
26342;DHT22;14054;50.108;8.640;2023-07-31T06:46:42;19.30;99.90
26342;DHT22;14054;50.108;8.640;2023-07-31T06:49:07;19.30;99.90
26342;DHT22;14054;50.108;8.640;2023-07-31T06:51:33;19.10;99.90
26342;DHT22;14054;50.108;8.640;2023-07-31T06:53:58;19.10;99.90
26342;DHT22;14054;50.108;8.640;2023-07-31T06:56:24;19.20;99.90
26342;DHT22;14054;50.108;8.640;2023-07-31T06:58:49;19.10;99.90
26342;DHT22;14054;50.108;8.640;2023-07-31T07:01:15;19.10;99.90
26342;DHT22;14054;50.108;8.640;2023-07-31T07:03:40;19.20;99.90
26342;DHT22;14054;50.108;8.640;2023-07-31T07:06:06;19.40;99.90
26342;DHT22;14054;50.108;8.640;2023-07-31T07:08:32;19.20;99.90
26342;DHT22;14054;50.108;8.640;2023-07-31T07:10:57;19.10;99.90
26342;DHT22;14054;50.108;8.640;2023-07-31T07:13:23;19.10;99.90
26342;DHT22;14054;50.108;8.640;2023-07-31T07:15:49;19.00;99.90
26342;DHT22;14054;50.108;8.640;2023-07-31T07:18:15;19.00;99.90
26342;DHT22;14054;50.108;8.640;2023-07-31T07:20:45;18.90;99.90
26342;DHT22;14054;50.108;8.640;2023-07-31T07:23:11;19.00;99.90
26342;DHT22;14054;50.108;8.640;2023-07-31T07:25:38;19.10;99.90
26342;DHT22;14054;50.108;8.640;2023-07-31T07:28:03;19.20;99.90
26342;DHT22;14054;50.108;8.640;2023-07-31T07:30:29;19.50;99.90
26342;DHT22;14054;50.108;8.640;2023-07-31T07:32:54;19.70;99.90
26342;DHT22;14054;50.108;8.640;2023-07-31T07:35:20;20.00;99.90
26342;DHT22;14054;50.108;8.640;2023-07-31T07:37:48;20.10;99.90
26342;DHT22;14054;50.108;8.640;2023-07-31T07:40:15;20.10;99.90
26342;DHT22;14054;50.108;8.640;2023-07-31T07:42:41;20.10;99.90
26342;DHT22;14054;50.108;8.640;2023-07-31T07:45:07;20.00;99.90
26342;DHT22;14054;50.108;8.640;2023-07-31T07:47:32;20.10;99.90
26342;DHT22;14054;50.108;8.640;2023-07-31T07:49:58;20.10;99.90
26342;DHT22;14054;50.108;8.640;2023-07-31T07:52:23;20.20;99.90
26342;DHT22;14054;50.108;8.640;2023-07-31T07:54:49;20.20;99.90
26342;DHT22;14054;50.108;8.640;2023-07-31T07:57:15;20.20;99.90
26342;DHT22;14054;50.108;8.640;2023-07-31T07:59:41;20.40;99.90
26342;DHT22;14054;50.108;8.640;2023-07-31T08:02:06;20.50;99.90
26342;DHT22;14054;50.108;8.640;2023-07-31T08:04:32;20.50;99.90
26342;DHT22;14054;50.108;8.640;2023-07-31T08:06:57;20.40;99.90
26342;DHT22;14054;50.108;8.640;2023-07-31T08:09:23;20.40;99.90
26342;DHT22;14054;50.108;8.640;2023-07-31T08:11:48;20.30;99.90
26342;DHT22;14054;50.108;8.640;2023-07-31T08:14:14;20.20;99.90
26342;DHT22;14054;50.108;8.640;2023-07-31T08:16:39;20.20;99.90
26342;DHT22;14054;50.108;8.640;2023-07-31T08:19:05;20.20;99.90
26342;DHT22;14054;50.108;8.640;2023-07-31T08:21:31;20.20;99.90
26342;DHT22;14054;50.108;8.640;2023-07-31T08:23:57;20.10;99.90
26342;DHT22;14054;50.108;8.640;2023-07-31T08:26:22;20.20;99.90
26342;DHT22;14054;50.108;8.640;2023-07-31T08:28:48;20.30;99.90
26342;DHT22;14054;50.108;8.640;2023-07-31T08:31:13;20.30;99.90
26342;DHT22;14054;50.108;8.640;2023-07-31T08:33:39;20.50;99.90
26342;DHT22;14054;50.108;8.640;2023-07-31T08:36:05;20.60;99.90
26342;DHT22;14054;50.108;8.640;2023-07-31T08:38:31;20.90;99.90
26342;DHT22;14054;50.108;8.640;2023-07-31T08:40:57;21.10;99.90
26342;DHT22;14054;50.108;8.640;2023-07-31T08:43:25;21.00;99.90
26342;DHT22;14054;50.108;8.640;2023-07-31T08:45:51;20.80;99.90
26342;DHT22;14054;50.108;8.640;2023-07-31T08:48:17;20.90;99.90
26342;DHT22;14054;50.108;8.640;2023-07-31T08:50:43;20.90;99.90
26342;DHT22;14054;50.108;8.640;2023-07-31T08:53:09;21.10;99.90
26342;DHT22;14054;50.108;8.640;2023-07-31T08:55:35;21.00;99.90
26342;DHT22;14054;50.108;8.640;2023-07-31T08:58:03;21.10;99.90
26342;DHT22;14054;50.108;8.640;2023-07-31T09:00:30;21.20;99.90
26342;DHT22;14054;50.108;8.640;2023-07-31T09:02:59;21.20;99.90
26342;DHT22;14054;50.108;8.640;2023-07-31T09:05:29;21.30;99.90
26342;DHT22;14054;50.108;8.640;2023-07-31T09:07:56;21.30;99.90
26342;DHT22;14054;50.108;8.640;2023-07-31T09:10:23;21.30;99.90
26342;DHT22;14054;50.108;8.640;2023-07-31T09:12:52;21.30;99.90
26342;DHT22;14054;50.108;8.640;2023-07-31T09:15:18;21.50;99.90
26342;DHT22;14054;50.108;8.640;2023-07-31T09:17:44;21.70;99.90
26342;DHT22;14054;50.108;8.640;2023-07-31T09:20:14;21.80;99.90
26342;DHT22;14054;50.108;8.640;2023-07-31T09:22:40;22.00;99.90
26342;DHT22;14054;50.108;8.640;2023-07-31T09:27:52;21.70;99.90
26342;DHT22;14054;50.108;8.640;2023-07-31T09:30:18;21.60;99.90
26342;DHT22;14054;50.108;8.640;2023-07-31T09:32:45;21.40;99.90
26342;DHT22;14054;50.108;8.640;2023-07-31T09:35:30;21.40;99.90
26342;DHT22;14054;50.108;8.640;2023-07-31T09:38:05;21.40;99.90
26342;DHT22;14054;50.108;8.640;2023-07-31T09:40:36;21.50;99.90
26342;DHT22;14054;50.108;8.640;2023-07-31T09:43:07;21.40;99.90
26342;DHT22;14054;50.108;8.640;2023-07-31T09:45:43;21.50;99.90
26342;DHT22;14054;50.108;8.640;2023-07-31T09:48:11;21.40;99.90
26342;DHT22;14054;50.108;8.640;2023-07-31T09:50:38;21.30;99.90
26342;DHT22;14054;50.108;8.640;2023-07-31T09:53:04;21.30;99.90
26342;DHT22;14054;50.108;8.640;2023-07-31T09:55:30;21.30;99.90
26342;DHT22;14054;50.108;8.640;2023-07-31T09:57:57;21.30;99.90
26342;DHT22;14054;50.108;8.640;2023-07-31T10:00:23;21.50;99.90
26342;DHT22;14054;50.108;8.640;2023-07-31T10:02:51;21.70;99.90
26342;DHT22;14054;50.108;8.640;2023-07-31T10:05:17;21.70;99.90
26342;DHT22;14054;50.108;8.640;2023-07-31T10:07:49;21.90;99.90
26342;DHT22;14054;50.108;8.640;2023-07-31T10:10:16;22.00;99.90
26342;DHT22;14054;50.108;8.640;2023-07-31T10:12:42;22.40;99.90
26342;DHT22;14054;50.108;8.640;2023-07-31T10:15:09;22.40;99.90
26342;DHT22;14054;50.108;8.640;2023-07-31T10:17:35;22.60;99.90
26342;DHT22;14054;50.108;8.640;2023-07-31T10:20:01;22.50;99.90
26342;DHT22;14054;50.108;8.640;2023-07-31T10:22:30;22.60;99.90
26342;DHT22;14054;50.108;8.640;2023-07-31T10:24:58;22.70;99.90
26342;DHT22;14054;50.108;8.640;2023-07-31T10:27:23;22.80;99.90
26342;DHT22;14054;50.108;8.640;2023-07-31T10:29:49;22.60;99.90
26342;DHT22;14054;50.108;8.640;2023-07-31T10:32:17;22.60;99.90
26342;DHT22;14054;50.108;8.640;2023-07-31T10:34:43;22.50;99.90
26342;DHT22;14054;50.108;8.640;2023-07-31T10:37:31;22.50;99.90
26342;DHT22;14054;50.108;8.640;2023-07-31T10:40:18;22.40;99.90
26342;DHT22;14054;50.108;8.640;2023-07-31T10:42:46;22.30;99.90
26342;DHT22;14054;50.108;8.640;2023-07-31T10:45:31;22.40;99.90
26342;DHT22;14054;50.108;8.640;2023-07-31T10:48:02;22.30;99.90
26342;DHT22;14054;50.108;8.640;2023-07-31T10:50:28;22.50;99.90
26342;DHT22;14054;50.108;8.640;2023-07-31T10:52:56;22.80;99.90
26342;DHT22;14054;50.108;8.640;2023-07-31T10:55:41;22.80;99.90
26342;DHT22;14054;50.108;8.640;2023-07-31T10:58:13;22.90;99.90
26342;DHT22;14054;50.108;8.640;2023-07-31T11:00:41;22.80;99.90
26342;DHT22;14054;50.108;8.640;2023-07-31T11:03:12;23.00;99.90
26342;DHT22;14054;50.108;8.640;2023-07-31T11:05:51;23.20;99.90
26342;DHT22;14054;50.108;8.640;2023-07-31T11:08:26;23.90;99.90
26342;DHT22;14054;50.108;8.640;2023-07-31T11:13:32;23.80;99.90
26342;DHT22;14054;50.108;8.640;2023-07-31T11:15:58;23.90;99.90
26342;DHT22;14054;50.108;8.640;2023-07-31T11:18:24;24.20;99.90
26342;DHT22;14054;50.108;8.640;2023-07-31T11:20:51;24.30;99.90
26342;DHT22;14054;50.108;8.640;2023-07-31T11:23:17;24.50;99.90
26342;DHT22;14054;50.108;8.640;2023-07-31T11:25:43;24.50;99.90
26342;DHT22;14054;50.108;8.640;2023-07-31T11:28:14;24.40;99.90
26342;DHT22;14054;50.108;8.640;2023-07-31T11:30:41;24.20;99.90
26342;DHT22;14054;50.108;8.640;2023-07-31T11:33:07;24.20;99.90
26342;DHT22;14054;50.108;8.640;2023-07-31T11:35:40;23.80;99.90
26342;DHT22;14054;50.108;8.640;2023-07-31T11:38:07;23.50;99.90
26342;DHT22;14054;50.108;8.640;2023-07-31T11:40:41;23.60;99.90
26342;DHT22;14054;50.108;8.640;2023-07-31T11:43:07;23.50;99.90
26342;DHT22;14054;50.108;8.640;2023-07-31T11:45:33;23.40;99.90
26342;DHT22;14054;50.108;8.640;2023-07-31T11:48:00;23.30;99.90
26342;DHT22;14054;50.108;8.640;2023-07-31T11:50:26;23.20;99.90
26342;DHT22;14054;50.108;8.640;2023-07-31T11:53:04;23.20;99.90
26342;DHT22;14054;50.108;8.640;2023-07-31T11:55:32;23.40;99.90
26342;DHT22;14054;50.108;8.640;2023-07-31T11:57:59;23.50;99.90
26342;DHT22;14054;50.108;8.640;2023-07-31T12:00:25;23.60;99.90
26342;DHT22;14054;50.108;8.640;2023-07-31T12:02:51;24.10;99.90
26342;DHT22;14054;50.108;8.640;2023-07-31T12:05:17;24.20;99.90
26342;DHT22;14054;50.108;8.640;2023-07-31T12:07:50;24.20;99.90
26342;DHT22;14054;50.108;8.640;2023-07-31T12:10:25;24.10;99.90
26342;DHT22;14054;50.108;8.640;2023-07-31T12:13:03;24.00;99.90
26342;DHT22;14054;50.108;8.640;2023-07-31T12:18:05;23.90;99.90
26342;DHT22;14054;50.108;8.640;2023-07-31T12:20:32;23.80;99.90
26342;DHT22;14054;50.108;8.640;2023-07-31T12:22:57;23.80;99.90
26342;DHT22;14054;50.108;8.640;2023-07-31T12:25:31;23.70;99.90
26342;DHT22;14054;50.108;8.640;2023-07-31T12:27:57;23.50;99.90
26342;DHT22;14054;50.108;8.640;2023-07-31T12:30:27;23.20;99.90
26342;DHT22;14054;50.108;8.640;2023-07-31T12:32:53;23.10;99.90
26342;DHT22;14054;50.108;8.640;2023-07-31T12:35:19;22.90;99.90
26342;DHT22;14054;50.108;8.640;2023-07-31T12:37:44;22.90;99.90
26342;DHT22;14054;50.108;8.640;2023-07-31T12:40:10;22.80;99.90
26342;DHT22;14054;50.108;8.640;2023-07-31T12:42:36;22.70;99.90
26342;DHT22;14054;50.108;8.640;2023-07-31T12:45:02;22.70;99.90
26342;DHT22;14054;50.108;8.640;2023-07-31T12:47:27;22.60;99.90
26342;DHT22;14054;50.108;8.640;2023-07-31T12:49:53;22.60;99.90
26342;DHT22;14054;50.108;8.640;2023-07-31T12:52:18;22.80;99.90
26342;DHT22;14054;50.108;8.640;2023-07-31T12:54:44;23.10;99.90
26342;DHT22;14054;50.108;8.640;2023-07-31T12:57:09;23.20;99.90
26342;DHT22;14054;50.108;8.640;2023-07-31T12:59:35;23.60;99.90
26342;DHT22;14054;50.108;8.640;2023-07-31T13:02:00;24.50;99.90
26342;DHT22;14054;50.108;8.640;2023-07-31T13:04:26;25.30;99.90
26342;DHT22;14054;50.108;8.640;2023-07-31T13:06:51;26.30;99.90
26342;DHT22;14054;50.108;8.640;2023-07-31T13:09:17;26.70;99.90
26342;DHT22;14054;50.108;8.640;2023-07-31T13:11:43;26.80;99.90
26342;DHT22;14054;50.108;8.640;2023-07-31T13:14:08;26.60;99.50
26342;DHT22;14054;50.108;8.640;2023-07-31T13:16:36;26.00;99.90
26342;DHT22;14054;50.108;8.640;2023-07-31T13:19:01;25.20;99.90
26342;DHT22;14054;50.108;8.640;2023-07-31T13:21:27;25.20;99.90
26342;DHT22;14054;50.108;8.640;2023-07-31T13:23:52;25.00;99.90
26342;DHT22;14054;50.108;8.640;2023-07-31T13:26:18;24.70;99.90
26342;DHT22;14054;50.108;8.640;2023-07-31T13:28:43;24.50;99.90
26342;DHT22;14054;50.108;8.640;2023-07-31T13:31:09;24.30;99.90
26342;DHT22;14054;50.108;8.640;2023-07-31T13:33:36;24.30;99.90
26342;DHT22;14054;50.108;8.640;2023-07-31T13:36:02;24.50;99.90
26342;DHT22;14054;50.108;8.640;2023-07-31T13:38:27;24.60;99.90
26342;DHT22;14054;50.108;8.640;2023-07-31T13:40:53;24.90;99.90
26342;DHT22;14054;50.108;8.640;2023-07-31T13:43:18;24.80;99.90
26342;DHT22;14054;50.108;8.640;2023-07-31T13:45:43;25.00;99.90
26342;DHT22;14054;50.108;8.640;2023-07-31T13:48:09;24.80;99.90
26342;DHT22;14054;50.108;8.640;2023-07-31T13:50:34;24.50;99.90
26342;DHT22;14054;50.108;8.640;2023-07-31T13:53:00;24.50;99.90
26342;DHT22;14054;50.108;8.640;2023-07-31T13:55:25;24.40;99.90
26342;DHT22;14054;50.108;8.640;2023-07-31T13:57:51;24.30;99.90
26342;DHT22;14054;50.108;8.640;2023-07-31T14:00:18;24.00;99.90
26342;DHT22;14054;50.108;8.640;2023-07-31T14:02:44;23.70;99.90
26342;DHT22;14054;50.108;8.640;2023-07-31T14:05:09;23.50;99.90
26342;DHT22;14054;50.108;8.640;2023-07-31T14:07:35;23.50;99.90
26342;DHT22;14054;50.108;8.640;2023-07-31T14:10:00;23.30;99.90
26342;DHT22;14054;50.108;8.640;2023-07-31T14:12:26;23.20;99.90
26342;DHT22;14054;50.108;8.640;2023-07-31T14:14:51;23.10;99.90
26342;DHT22;14054;50.108;8.640;2023-07-31T14:17:17;23.00;99.90
26342;DHT22;14054;50.108;8.640;2023-07-31T14:19:42;22.90;99.90
26342;DHT22;14054;50.108;8.640;2023-07-31T14:22:08;22.70;99.90
26342;DHT22;14054;50.108;8.640;2023-07-31T14:24:33;22.70;99.90
26342;DHT22;14054;50.108;8.640;2023-07-31T14:26:59;22.60;99.90
26342;DHT22;14054;50.108;8.640;2023-07-31T14:29:25;22.50;99.90
26342;DHT22;14054;50.108;8.640;2023-07-31T14:31:50;22.50;99.90
26342;DHT22;14054;50.108;8.640;2023-07-31T14:34:16;22.50;99.90
26342;DHT22;14054;50.108;8.640;2023-07-31T14:36:42;22.40;99.90
26342;DHT22;14054;50.108;8.640;2023-07-31T14:39:07;22.40;99.90
26342;DHT22;14054;50.108;8.640;2023-07-31T14:41:33;22.40;99.90
26342;DHT22;14054;50.108;8.640;2023-07-31T14:43:58;22.50;99.90
26342;DHT22;14054;50.108;8.640;2023-07-31T14:46:24;22.60;99.90
26342;DHT22;14054;50.108;8.640;2023-07-31T14:48:49;22.70;99.90
26342;DHT22;14054;50.108;8.640;2023-07-31T14:51:15;22.80;99.90
26342;DHT22;14054;50.108;8.640;2023-07-31T14:53:41;23.00;99.90
26342;DHT22;14054;50.108;8.640;2023-07-31T14:56:07;22.90;99.90
26342;DHT22;14054;50.108;8.640;2023-07-31T14:58:32;22.90;99.90
26342;DHT22;14054;50.108;8.640;2023-07-31T15:00:58;22.80;99.90
26342;DHT22;14054;50.108;8.640;2023-07-31T15:03:23;22.80;99.90
26342;DHT22;14054;50.108;8.640;2023-07-31T15:05:50;22.70;99.90
26342;DHT22;14054;50.108;8.640;2023-07-31T15:08:15;22.60;99.90
26342;DHT22;14054;50.108;8.640;2023-07-31T15:10:41;22.60;99.90
26342;DHT22;14054;50.108;8.640;2023-07-31T15:13:06;22.50;99.90
26342;DHT22;14054;50.108;8.640;2023-07-31T15:15:32;22.40;99.90
26342;DHT22;14054;50.108;8.640;2023-07-31T15:17:57;22.30;99.90
26342;DHT22;14054;50.108;8.640;2023-07-31T15:20:23;22.40;99.90
26342;DHT22;14054;50.108;8.640;2023-07-31T15:22:48;22.30;99.90
26342;DHT22;14054;50.108;8.640;2023-07-31T15:25:14;22.30;99.90
26342;DHT22;14054;50.108;8.640;2023-07-31T15:27:40;22.20;99.90
26342;DHT22;14054;50.108;8.640;2023-07-31T15:30:06;22.20;99.90
26342;DHT22;14054;50.108;8.640;2023-07-31T15:32:31;22.10;99.90
26342;DHT22;14054;50.108;8.640;2023-07-31T15:34:57;22.10;99.90
26342;DHT22;14054;50.108;8.640;2023-07-31T15:37:23;22.10;99.90
26342;DHT22;14054;50.108;8.640;2023-07-31T15:39:48;22.00;99.90